Terminal Aerodrome Forecast
Issued by NWS

Home | Current Version | Previous Version | Text Only | Print | Product List | Glossary On
Versions: 1 2 3 4 5 6 7 8 9 10 11 12 13 14 15
000
FTUS45 KABQ 231145
TAFLVS
TAF
KLVS 231145Z 2312/2412 27025G32KT P6SM SKC
     FM232000 24030G40KT P6SM SKC
     FM240100 23025G35KT P6SM VCSH SCT060
     FM240800 25015G25KT P6SM VCSH BKN050
      TEMPO 2409/2412 5SM -SN BR OVC025=

USA.gov is the U.S. government's official web portal to all federal, state and local government web resources and services.